• Join FlightAware (Why Join?)
  • Login
  • US Flag 
05:06PM EST


 

Airport Tracker/Info


-or-


 

Live Flight TrackerFlight Track Log ✈ GJS3618 ✈ 05-Jul-2013 ✈ KORD - KOMA

Flight Track Log - Related Links

Times and Time Zones

All times are in EDT time to prevent confusion due to time zone crossing. See the GJS3618 flight status page for this flight to view local times or setup timezone preferences in your user account.

Time Position Orientation Groundspeed Altitude Reporting Facility
EDT Latitude Longitude Course Direction KTS MPH feet Rate Location/Type
07:19PM 41.9333 -87.9333 261° West 186 214 2,400  Level Chicago TRACON
07:20PM 41.9167 -88.0167 255° West 249 287 4,500 1,200 Climbing Chicago TRACON
07:21PM 41.9333 -88.2979 270° West  Level FlightAware Approximate
07:22PM 41.9167 -88.4307 270° West  Level FlightAware Approximate
07:22PM 41.8958 -88.2214 262° West 269 310 6,500  Level Chicago Center
07:23PM 41.9052 -88.5651 261° West  Level FlightAware Approximate
07:23PM 41.8922 -88.3444 268° West 276 318 10,300  Level Chicago Center
07:24PM 41.8894 -88.6991 261° West  Level FlightAware Approximate
07:24PM 41.8864 -88.4589 266° West 302 348 12,000  Level Chicago Center
07:26PM 41.8806 -88.5892 267° West 349 402 13,600 1,500 Climbing Chicago Center
07:27PM 41.8642 -88.7292 261° West 380 437 15,100 1,500 Climbing Chicago Center
07:28PM 41.8447 -88.8786 260° West 405 466 16,700 1,740 Climbing Chicago Center
07:29PM 41.8217 -89.0594 260° West 415 478 18,700 1,800 Climbing Chicago Center
07:30PM 41.8061 -89.2147 262° West 422 486 20,500 1,680 Climbing Chicago Center
07:31PM 41.7889 -89.3686 262° West 422 486 22,200 1,560 Climbing Chicago Center
07:32PM 41.7728 -89.5239 262° West 424 488 23,700 1,440 Climbing Chicago Center
07:33PM 41.7564 -89.6775 262° West 430 495 25,200 1,320 Climbing Chicago Center
07:34PM 41.7403 -89.8358 262° West 432 497 26,500 1,440 Climbing Chicago Center
07:35PM 41.7372 -90.0319 269° West 440 506 28,200 1,380 Climbing Chicago Center
07:36PM 41.7319 -90.1989 268° West 446 513 29,400 960 Climbing Chicago Center
07:37PM 41.7272 -90.3672 268° West 451 519 30,300 1,020 Climbing Chicago Center
07:38PM 41.7231 -90.5375 268° West 458 527 31,500 1,140 Climbing Chicago Center
07:39PM 41.7183 -90.7228 268° West 458 527 32,700 1,140 Climbing Chicago Center
07:40PM 41.7136 -90.8942 268° West 462 532 33,900 600 Climbing Chicago Center
07:41PM 41.7086 -91.0658 268° West 463 533 34,000  Climbing Chicago Center
07:42PM 41.7033 -91.2453 268° West 480 552 34,000  Level Chicago Center
07:43PM 41.6969 -91.4256 267° West 487 560 34,000  Level Chicago Center
07:44PM 41.6914 -91.6033 268° West 483 556 34,000  Level Chicago Center
07:45PM 41.6836 -91.8158 267° West 481 554 34,000  Level Chicago Center
07:46PM 41.6769 -91.9939 267° West 480 552 34,000  Level Chicago Center
07:47PM 41.6703 -92.1731 267° West 484 557 34,000  Level Chicago Center
07:48PM 41.6625 -92.3514 267° West 483 556 34,000  Level Chicago Center
07:49PM 41.6544 -92.5308 267° West 487 560 34,000  Level Chicago Center
07:50PM 41.6464 -92.7106 267° West 488 562 34,000  Level Chicago Center
07:51PM 41.6383 -92.8919 267° West 486 559 34,000  Level Chicago Center
07:52PM 41.6278 -93.1050 266° West 484 557 34,000  Level Chicago Center
07:53PM 41.6200 -93.2806 267° West 479 551 34,000  Level Chicago Center
07:54PM 41.6108 -93.4525 266° West 473 544 34,000  Level Chicago Center
07:56PM 41.6017 -93.6503 267° West 458 527 34,000  Level Minneapolis Center
07:57PM 41.5944 -93.7858 266° West 459 528 34,000 -960 Level Minneapolis Center
07:58PM 41.5794 -94.0244 265° West 464 534 32,100 -2,460 Descending Minneapolis Center
07:59PM 41.5683 -94.1939 265° West 465 535 29,000 -3,060 Descending Minneapolis Center
08:00PM 41.5622 -94.3486 267° West 443 510 25,900 -3,060 Descending Minneapolis Center
08:01PM 41.5542 -94.5086 266° West 436 502 22,800 -3,060 Descending Minneapolis Center
08:02PM 41.5431 -94.6656 265° West 426 490 19,700 -3,060 Descending Minneapolis Center
08:03PM 41.5344 -94.8153 266° West 411 473 16,600 -1,920 Descending Minneapolis Center
08:04PM 41.5378 -94.9636 272° West 359 413 16,000 -1,020 Descending Minneapolis Center
08:05PM 41.5164 -95.0969 258° West 334 384 14,600 -1,920 Descending Minneapolis Center
08:06PM 41.5092 -95.2042 265° West 290 334 12,200 -2,400 Descending Minneapolis Center
08:07PM 41.4886 -95.3114 256° West 297 342 9,700 -2,100 Descending Minneapolis Center
08:08PM 41.4900 -95.4042 271° West 254 292 8,000 -1,680 Descending Minneapolis Center
08:09PM 41.4897 -95.4906 270° West 227 261 6,600 -1,320 Descending Minneapolis Center
08:10PM 41.4847 -95.5719 265° West 216 249 5,400 -1,260 Descending Minneapolis Center
08:11PM 41.4736 -95.6511 259° West 215 247 4,100 -1,200 Descending Minneapolis Center
08:12PM 41.4603 -95.7361 258° West 218 251 3,000 -600 Descending Minneapolis Center
08:13PM 41.4469 -95.8158 257° West 217 250 3,000 -120 Level Minneapolis Center
08:14PM 41.4347 -95.8839 257° West 186 214 2,800 -300 Descending Minneapolis Center
08:15PM 41.3939 -95.8997 196° South 153 176 2,400 -540 Descending Minneapolis Center
08:16PM 41.3583 -95.9011 182° South 115 132 1,800 -600 Descending Minneapolis Center